航空気象通報

ウインドサーファーのための航空気象通報による風予報です。

1/25-1/27の航空気象通報

2017年01月25日 21時45分20秒 | TAF
羽田空港
TAF RJTT 251105Z 2512/2618 34012KT 9999 FEW030
BECMG 2603/2606 14008KT
BECMG 2615/2618 20015KT
日本時間25日21時-26日12時:340度から12ノットの風
12-15時:風が変化
15-24時:140度から8ノットの風
27日00-03時:風が変化
03時:200度から15ノットの風


静岡空港
TAF RJNS 251106Z 2512/2618 34005KT 9999 FEW030
BECMG 2600/2603 20005KT
BECMG 2606/2609 28008KT
日本時間25日21時-26日09時:340度から5ノットの風
09-12時:風が変化
12-15時:200度から5ノットの風
15-18時:風が変化
18時-27日03時:280度から8ノットの風


福岡空港
TAF RJFF 251106Z 2512/2618 14005KT 9999 FEW035
BECMG 2603/2606 30006KT
BECMG 2609/2612 14005KT
日本時間25日21時-26日12時:140度から5ノットの風
12-15時:風が変化
15-18時:300度から6ノットの風
18-21時:風が変化
21時-27日03時:140度から5ノットの風


那覇空港
TAF ROAH 251106Z 2512/2618 03010KT 9999 FEW030 BKN045
日本時間25日21時-27日03時:030度から10ノットの風


石垣空港
TAF ROIG 251111Z 2512/2618 04020KT 9999 -RA FEW007 BKN020
TEMPO 2512/2517 4000 SHRA
BECMG 2615/2618 07009KT
日本時間25日21時-26日24時:040度から20ノットの風
27日00-03時:風が変化
03時:070度から9ノットの風


マウイのカフルイ空港
PHOG 251136Z 2512/2612 03012KT P6SM FEW025 SCT040
FM252000 05018G24KT P6SM FEW025 SCT040
FM260500 05012G18KT P6SM FEW025 SCT040 AMD LTD TO VIS AND WIND TIL 251600
ハワイ時間25日02-10時:030度から12ノットの風
10-19時:050度から18ノット、突風24ノット
19時-26日02時:050度から12ノット、突風18ノット


サイパン空港
TAF PGSN 251127Z 2512/2612 04012G20KT P6SM VCSH SCT021 SCT040 BKN060
マリアナ時間25日22時-26日22時:040度から12ノット、突風20ノット

ジャンル:
お天気
コメント   この記事についてブログを書く
この記事をはてなブックマークに追加
« 1/24-1/26の航空気象通報 | トップ | 1/26-1/28の航空気象通報 »
最近の画像もっと見る

コメントを投稿

ブログ作成者から承認されるまでコメントは反映されません。

TAF」カテゴリの最新記事